sensor_id;sensor_type;location;lat;lon;timestamp;pressure;altitude;pressure_sealevel;temperature;humidity
62031;BME280;62035;52.094;5.112;2022-10-31T00:01:23;102163.97;;;14.73;100.00
62031;BME280;62035;52.094;5.112;2022-10-31T00:03:52;102156.06;;;14.62;100.00
62031;BME280;62035;52.094;5.112;2022-10-31T00:06:20;102162.22;;;14.82;100.00
62031;BME280;62035;52.094;5.112;2022-10-31T00:08:52;102162.06;;;14.93;100.00
62031;BME280;62035;52.094;5.112;2022-10-31T00:11:21;102154.81;;;14.66;100.00
62031;BME280;62035;52.094;5.112;2022-10-31T00:13:48;102164.97;;;14.62;100.00
62031;BME280;62035;52.094;5.112;2022-10-31T00:16:19;102170.59;;;14.69;100.00
62031;BME280;62035;52.094;5.112;2022-10-31T00:18:48;102164.09;;;14.72;100.00
62031;BME280;62035;52.094;5.112;2022-10-31T00:21:16;102163.28;;;14.61;100.00
62031;BME280;62035;52.094;5.112;2022-10-31T00:23:44;102170.16;;;14.74;100.00
62031;BME280;62035;52.094;5.112;2022-10-31T00:26:12;102169.34;;;14.63;100.00
62031;BME280;62035;52.094;5.112;2022-10-31T00:28:40;102171.16;;;14.63;100.00
62031;BME280;62035;52.094;5.112;2022-10-31T00:31:10;102173.56;;;14.47;100.00
62031;BME280;62035;52.094;5.112;2022-10-31T00:33:40;102176.09;;;14.48;100.00
62031;BME280;62035;52.094;5.112;2022-10-31T00:36:12;102164.13;;;14.52;100.00
62031;BME280;62035;52.094;5.112;2022-10-31T00:38:41;102177.50;;;14.43;100.00
62031;BME280;62035;52.094;5.112;2022-10-31T00:41:09;102167.22;;;14.57;100.00
62031;BME280;62035;52.094;5.112;2022-10-31T00:43:37;102180.75;;;14.46;100.00
62031;BME280;62035;52.094;5.112;2022-10-31T00:46:04;102181.19;;;14.51;100.00
62031;BME280;62035;52.094;5.112;2022-10-31T00:48:32;102186.97;;;14.37;100.00
62031;BME280;62035;52.094;5.112;2022-10-31T00:51:01;102190.91;;;14.43;100.00
62031;BME280;62035;52.094;5.112;2022-10-31T00:53:29;102180.19;;;14.33;100.00
62031;BME280;62035;52.094;5.112;2022-10-31T00:55:56;102177.38;;;14.34;100.00
62031;BME280;62035;52.094;5.112;2022-10-31T00:58:24;102186.38;;;14.33;100.00
62031;BME280;62035;52.094;5.112;2022-10-31T01:00:51;102180.75;;;14.46;100.00
62031;BME280;62035;52.094;5.112;2022-10-31T01:03:22;102179.78;;;14.38;100.00
62031;BME280;62035;52.094;5.112;2022-10-31T01:05:58;102186.97;;;14.37;100.00
62031;BME280;62035;52.094;5.112;2022-10-31T01:08:28;102186.53;;;14.32;100.00
62031;BME280;62035;52.094;5.112;2022-10-31T01:11:04;102175.41;;;14.56;100.00
62031;BME280;62035;52.094;5.112;2022-10-31T01:13:34;102159.88;;;14.40;100.00
62031;BME280;62035;52.094;5.112;2022-10-31T01:16:04;102159.63;;;14.43;100.00
62031;BME280;62035;52.094;5.112;2022-10-31T01:18:33;102151.44;;;14.45;100.00
62031;BME280;62035;52.094;5.112;2022-10-31T01:21:05;102158.47;;;14.36;100.00
62031;BME280;62035;52.094;5.112;2022-10-31T01:23:35;102156.22;;;14.22;100.00
62031;BME280;62035;52.094;5.112;2022-10-31T01:26:05;102152.28;;;14.26;100.00
62031;BME280;62035;52.094;5.112;2022-10-31T01:28:35;102147.19;;;14.13;100.00
62031;BME280;62035;52.094;5.112;2022-10-31T01:31:06;102147.91;;;14.15;100.00
62031;BME280;62035;52.094;5.112;2022-10-31T01:33:36;102161.28;;;14.15;100.00
62031;BME280;62035;52.094;5.112;2022-10-31T01:36:15;102154.53;;;14.21;100.00
62031;BME280;62035;52.094;5.112;2022-10-31T01:38:45;102154.25;;;14.14;100.00
62031;BME280;62035;52.094;5.112;2022-10-31T01:41:15;102151.56;;;14.05;100.00
62031;BME280;62035;52.094;5.112;2022-10-31T01:43:46;102148.19;;;13.93;100.00
62031;BME280;62035;52.094;5.112;2022-10-31T01:46:19;102152.81;;;14.10;100.00
62031;BME280;62035;52.094;5.112;2022-10-31T01:48:53;102145.50;;;14.12;100.00
62031;BME280;62035;52.094;5.112;2022-10-31T01:51:28;102135.06;;;13.90;100.00
62031;BME280;62035;52.094;5.112;2022-10-31T01:54:02;102149.69;;;13.76;100.00
62031;BME280;62035;52.094;5.112;2022-10-31T01:56:35;102146.47;;;13.82;100.00
62031;BME280;62035;52.094;5.112;2022-10-31T01:59:09;102140.13;;;13.83;100.00
62031;BME280;62035;52.094;5.112;2022-10-31T02:01:39;102137.59;;;13.82;100.00
62031;BME280;62035;52.094;5.112;2022-10-31T02:04:07;102140.25;;;13.72;100.00
62031;BME280;62035;52.094;5.112;2022-10-31T02:06:40;102144.47;;;13.65;100.00
62031;BME280;62035;52.094;5.112;2022-10-31T02:09:13;102140.34;;;13.61;100.00
62031;BME280;62035;52.094;5.112;2022-10-31T02:11:42;102148.66;;;13.48;100.00
62031;BME280;62035;52.094;5.112;2022-10-31T02:14:11;102143.75;;;13.53;100.00
62031;BME280;62035;52.094;5.112;2022-10-31T02:16:40;102146.81;;;13.49;100.00
62031;BME280;62035;52.094;5.112;2022-10-31T02:19:08;102141.47;;;13.49;100.00
62031;BME280;62035;52.094;5.112;2022-10-31T02:21:50;102144.25;;;13.38;100.00
62031;BME280;62035;52.094;5.112;2022-10-31T02:24:44;102150.44;;;13.38;100.00
62031;BME280;62035;52.094;5.112;2022-10-31T02:27:42;102143.81;;;13.32;100.00
62031;BME280;62035;52.094;5.112;2022-10-31T02:30:32;102137.69;;;13.21;100.00
62031;BME280;62035;52.094;5.112;2022-10-31T02:33:15;102141.41;;;13.29;100.00
62031;BME280;62035;52.094;5.112;2022-10-31T02:35:55;102149.59;;;13.38;100.00
62031;BME280;62035;52.094;5.112;2022-10-31T02:38:41;102150.22;;;13.20;100.00
62031;BME280;62035;52.094;5.112;2022-10-31T02:41:30;102152.81;;;13.31;100.00
62031;BME280;62035;52.094;5.112;2022-10-31T02:44:08;102153.34;;;13.25;100.00
62031;BME280;62035;52.094;5.112;2022-10-31T02:46:44;102149.72;;;13.06;100.00
62031;BME280;62035;52.094;5.112;2022-10-31T02:49:23;102152.00;;;13.10;100.00
62031;BME280;62035;52.094;5.112;2022-10-31T02:51:55;102157.03;;;13.03;100.00
62031;BME280;62035;52.094;5.112;2022-10-31T02:54:24;102149.53;;;12.97;100.00
62031;BME280;62035;52.094;5.112;2022-10-31T02:56:56;102160.94;;;12.99;100.00
62031;BME280;62035;52.094;5.112;2022-10-31T02:59:31;102150.31;;;12.88;100.00
62031;BME280;62035;52.094;5.112;2022-10-31T03:02:28;102149.72;;;12.75;100.00
62031;BME280;62035;52.094;5.112;2022-10-31T03:05:40;102159.03;;;12.60;100.00
62031;BME280;62035;52.094;5.112;2022-10-31T03:08:21;102161.34;;;12.53;100.00
62031;BME280;62035;52.094;5.112;2022-10-31T03:10:58;102158.91;;;12.61;100.00
62031;BME280;62035;52.094;5.112;2022-10-31T03:13:34;102160.84;;;12.59;100.00
62031;BME280;62035;52.094;5.112;2022-10-31T03:16:12;102158.75;;;12.63;100.00
62031;BME280;62035;52.094;5.112;2022-10-31T03:18:46;102156.88;;;12.54;100.00
62031;BME280;62035;52.094;5.112;2022-10-31T03:21:21;102160.13;;;12.57;100.00
62031;BME280;62035;52.094;5.112;2022-10-31T03:23:55;102149.88;;;12.42;100.00
62031;BME280;62035;52.094;5.112;2022-10-31T03:26:25;102152.88;;;12.48;100.00
62031;BME280;62035;52.094;5.112;2022-10-31T03:28:55;102161.16;;;12.45;100.00
62031;BME280;62035;52.094;5.112;2022-10-31T03:31:29;102164.06;;;12.42;100.00
62031;BME280;62035;52.094;5.112;2022-10-31T03:34:01;102167.03;;;12.39;100.00
62031;BME280;62035;52.094;5.112;2022-10-31T03:36:33;102150.69;;;12.32;100.00
62031;BME280;62035;52.094;5.112;2022-10-31T03:39:08;102163.06;;;12.33;100.00
62031;BME280;62035;52.094;5.112;2022-10-31T03:41:44;102161.69;;;12.39;100.00
62031;BME280;62035;52.094;5.112;2022-10-31T03:44:19;102162.59;;;12.49;100.00
62031;BME280;62035;52.094;5.112;2022-10-31T03:46:49;102162.81;;;12.37;100.00
62031;BME280;62035;52.094;5.112;2022-10-31T03:49:17;102160.97;;;12.58;100.00
62031;BME280;62035;52.094;5.112;2022-10-31T03:51:51;102166.81;;;12.52;100.00
62031;BME280;62035;52.094;5.112;2022-10-31T03:54:28;102169.41;;;12.42;100.00
62031;BME280;62035;52.094;5.112;2022-10-31T03:57:06;102160.78;;;12.50;100.00
62031;BME280;62035;52.094;5.112;2022-10-31T03:59:44;102164.03;;;12.53;100.00
62031;BME280;62035;52.094;5.112;2022-10-31T04:02:18;102158.69;;;12.53;100.00
62031;BME280;62035;52.094;5.112;2022-10-31T04:04:50;102157.72;;;12.54;100.00
62031;BME280;62035;52.094;5.112;2022-10-31T04:07:22;102165.22;;;12.60;100.00
62031;BME280;62035;52.094;5.112;2022-10-31T04:09:56;102174.59;;;12.55;100.00
62031;BME280;62035;52.094;5.112;2022-10-31T04:12:27;102167.16;;;12.58;100.00
62031;BME280;62035;52.094;5.112;2022-10-31T04:14:59;102165.00;;;12.52;100.00
62031;BME280;62035;52.094;5.112;2022-10-31T04:17:31;102159.66;;;12.52;100.00
62031;BME280;62035;52.094;5.112;2022-10-31T04:20:02;102160.63;;;12.51;100.00
62031;BME280;62035;52.094;5.112;2022-10-31T04:22:32;102159.19;;;12.47;100.00
62031;BME280;62035;52.094;5.112;2022-10-31T04:24:59;102150.94;;;12.50;100.00
62031;BME280;62035;52.094;5.112;2022-10-31T04:27:27;102152.63;;;12.51;100.00
62031;BME280;62035;52.094;5.112;2022-10-31T04:29:54;102152.97;;;12.37;100.00
62031;BME280;62035;52.094;5.112;2022-10-31T04:32:22;102154.97;;;12.24;100.00
62031;BME280;62035;52.094;5.112;2022-10-31T04:34:49;102158.69;;;12.32;100.00
62031;BME280;62035;52.094;5.112;2022-10-31T04:37:17;102159.31;;;12.25;100.00
62031;BME280;62035;52.094;5.112;2022-10-31T04:39:46;102162.81;;;12.37;100.00
62031;BME280;62035;52.094;5.112;2022-10-31T04:42:13;102162.88;;;12.14;100.00
62031;BME280;62035;52.094;5.112;2022-10-31T04:44:41;102164.66;;;12.25;100.00
62031;BME280;62035;52.094;5.112;2022-10-31T04:47:08;102159.72;;;12.20;100.00
62031;BME280;62035;52.094;5.112;2022-10-31T04:49:36;102149.16;;;12.40;100.00
62031;BME280;62035;52.094;5.112;2022-10-31T04:52:03;102147.75;;;12.35;100.00
62031;BME280;62035;52.094;5.112;2022-10-31T04:54:31;102158.94;;;12.29;100.00
62031;BME280;62035;52.094;5.112;2022-10-31T04:57:00;102162.00;;;12.25;100.00
62031;BME280;62035;52.094;5.112;2022-10-31T04:59:27;102159.06;;;12.28;100.00
62031;BME280;62035;52.094;5.112;2022-10-31T05:01:55;102158.47;;;12.24;100.00
62031;BME280;62035;52.094;5.112;2022-10-31T05:04:23;102166.69;;;12.32;100.00
62031;BME280;62035;52.094;5.112;2022-10-31T05:06:50;102159.88;;;12.08;100.00
62031;BME280;62035;52.094;5.112;2022-10-31T05:09:18;102148.66;;;11.93;100.00
62031;BME280;62035;52.094;5.112;2022-10-31T05:11:45;102159.38;;;12.14;100.00
62031;BME280;62035;52.094;5.112;2022-10-31T05:14:14;102155.72;;;12.15;100.00
62031;BME280;62035;52.094;5.112;2022-10-31T05:16:41;102154.63;;;12.17;100.00
62031;BME280;62035;52.094;5.112;2022-10-31T05:19:09;102149.44;;;12.05;100.00
62031;BME280;62035;52.094;5.112;2022-10-31T05:21:37;102152.25;;;12.03;100.00
62031;BME280;62035;52.094;5.112;2022-10-31T05:24:05;102150.63;;;12.12;100.00
62031;BME280;62035;52.094;5.112;2022-10-31T05:26:33;102146.75;;;12.16;100.00
62031;BME280;62035;52.094;5.112;2022-10-31T05:29:01;102146.38;;;12.20;100.00
62031;BME280;62035;52.094;5.112;2022-10-31T05:31:29;102140.84;;;12.33;100.00
62031;BME280;62035;52.094;5.112;2022-10-31T05:33:57;102132.88;;;12.22;100.00
62031;BME280;62035;52.094;5.112;2022-10-31T05:36:25;102149.66;;;12.13;100.00
62031;BME280;62035;52.094;5.112;2022-10-31T05:38:52;102137.38;;;12.21;100.00
62031;BME280;62035;52.094;5.112;2022-10-31T05:41:20;102136.88;;;12.27;100.00
62031;BME280;62035;52.094;5.112;2022-10-31T05:43:47;102131.19;;;12.21;100.00
62031;BME280;62035;52.094;5.112;2022-10-31T05:46:15;102126.31;;;12.26;100.00
62031;BME280;62035;52.094;5.112;2022-10-31T05:48:44;102129.63;;;12.18;100.00
62031;BME280;62035;52.094;5.112;2022-10-31T05:51:12;102134.50;;;12.13;100.00
62031;BME280;62035;52.094;5.112;2022-10-31T05:53:39;102131.19;;;12.21;100.00
62031;BME280;62035;52.094;5.112;2022-10-31T05:56:07;102129.03;;;12.15;100.00
62031;BME280;62035;52.094;5.112;2022-10-31T05:58:35;102130.25;;;12.11;100.00
62031;BME280;62035;52.094;5.112;2022-10-31T06:01:02;102129.25;;;12.23;100.00
62031;BME280;62035;52.094;5.112;2022-10-31T06:03:30;102121.16;;;12.13;100.00
62031;BME280;62035;52.094;5.112;2022-10-31T06:05:59;102128.81;;;12.07;100.00
62031;BME280;62035;52.094;5.112;2022-10-31T06:08:26;102129.28;;;12.12;100.00
62031;BME280;62035;52.094;5.112;2022-10-31T06:10:54;102118.41;;;12.03;100.00
62031;BME280;62035;52.094;5.112;2022-10-31T06:13:21;102126.97;;;12.18;100.00
62031;BME280;62035;52.094;5.112;2022-10-31T06:15:49;102125.53;;;12.14;100.00
62031;BME280;62035;52.094;5.112;2022-10-31T06:18:17;102123.94;;;12.12;100.00
62031;BME280;62035;52.094;5.112;2022-10-31T06:20:44;102123.16;;;12.32;100.00
62031;BME280;62035;52.094;5.112;2022-10-31T06:23:13;102127.25;;;12.36;100.00
62031;BME280;62035;52.094;5.112;2022-10-31T06:25:41;102127.50;;;12.33;100.00
62031;BME280;62035;52.094;5.112;2022-10-31T06:28:08;102133.94;;;12.30;100.00
62031;BME280;62035;52.094;5.112;2022-10-31T06:30:36;102136.16;;;12.25;100.00
62031;BME280;62035;52.094;5.112;2022-10-31T06:33:04;102134.25;;;12.16;100.00
62031;BME280;62035;52.094;5.112;2022-10-31T06:35:32;102138.22;;;12.22;100.00
62031;BME280;62035;52.094;5.112;2022-10-31T06:38:00;102131.53;;;12.27;100.00
62031;BME280;62035;52.094;5.112;2022-10-31T06:40:29;102134.25;;;12.16;100.00
62031;BME280;62035;52.094;5.112;2022-10-31T06:42:57;102138.28;;;12.11;100.00
62031;BME280;62035;52.094;5.112;2022-10-31T06:45:26;102136.06;;;12.16;100.00
62031;BME280;62035;52.094;5.112;2022-10-31T06:47:55;102140.44;;;12.17;100.00
62031;BME280;62035;52.094;5.112;2022-10-31T06:50:23;102129.78;;;12.06;100.00
62031;BME280;62035;52.094;5.112;2022-10-31T06:52:51;102136.75;;;12.29;100.00
62031;BME280;62035;52.094;5.112;2022-10-31T06:55:19;102138.34;;;12.20;100.00
62031;BME280;62035;52.094;5.112;2022-10-31T06:57:53;102143.38;;;12.02;100.00
62031;BME280;62035;52.094;5.112;2022-10-31T07:00:22;102134.16;;;12.07;100.00
62031;BME280;62035;52.094;5.112;2022-10-31T07:02:54;102130.44;;;12.30;100.00
62031;BME280;62035;52.094;5.112;2022-10-31T07:05:22;102138.91;;;12.35;100.00
62031;BME280;62035;52.094;5.112;2022-10-31T07:07:52;102124.50;;;12.26;100.00
62031;BME280;62035;52.094;5.112;2022-10-31T07:10:21;102135.78;;;12.30;100.00
62031;BME280;62035;52.094;5.112;2022-10-31T07:12:55;102134.25;;;12.16;100.00
62031;BME280;62035;52.094;5.112;2022-10-31T07:15:24;102144.28;;;12.24;100.00
62031;BME280;62035;52.094;5.112;2022-10-31T07:17:52;102117.59;;;12.24;100.00
62031;BME280;62035;52.094;5.112;2022-10-31T07:20:20;102140.25;;;12.29;100.00
62031;BME280;62035;52.094;5.112;2022-10-31T07:22:47;102141.16;;;12.40;100.00
62031;BME280;62035;52.094;5.112;2022-10-31T07:25:15;102139.28;;;12.30;100.00
62031;BME280;62035;52.094;5.112;2022-10-31T07:27:43;102149.00;;;12.31;100.00
62031;BME280;62035;52.094;5.112;2022-10-31T07:30:13;102148.66;;;12.25;100.00
62031;BME280;62035;52.094;5.112;2022-10-31T07:32:44;102146.03;;;12.14;100.00
62031;BME280;62035;52.094;5.112;2022-10-31T07:35:14;102144.16;;;12.25;100.00
62031;BME280;62035;52.094;5.112;2022-10-31T07:37:43;102155.22;;;12.21;100.00
62031;BME280;62035;52.094;5.112;2022-10-31T07:40:12;102145.47;;;12.31;100.00
62031;BME280;62035;52.094;5.112;2022-10-31T07:42:41;102136.75;;;12.29;100.00
62031;BME280;62035;52.094;5.112;2022-10-31T07:45:13;102143.28;;;12.36;100.00
62031;BME280;62035;52.094;5.112;2022-10-31T07:47:43;102150.59;;;12.44;100.00
62031;BME280;62035;52.094;5.112;2022-10-31T07:50:14;102153.94;;;12.36;100.00
62031;BME280;62035;52.094;5.112;2022-10-31T07:52:44;102153.22;;;12.55;100.00
62031;BME280;62035;52.094;5.112;2022-10-31T07:55:12;102153.81;;;12.58;100.00
62031;BME280;62035;52.094;5.112;2022-10-31T07:57:41;102161.22;;;12.55;100.00
62031;BME280;62035;52.094;5.112;2022-10-31T08:00:10;102164.09;;;12.63;100.00
62031;BME280;62035;52.094;5.112;2022-10-31T08:02:39;102161.91;;;12.68;100.00
62031;BME280;62035;52.094;5.112;2022-10-31T08:05:07;102159.09;;;12.69;100.00
62031;BME280;62035;52.094;5.112;2022-10-31T08:07:36;102161.66;;;12.81;100.00
62031;BME280;62035;52.094;5.112;2022-10-31T08:10:05;102162.50;;;12.81;100.00
62031;BME280;62035;52.094;5.112;2022-10-31T08:12:32;102164.53;;;12.89;100.00
62031;BME280;62035;52.094;5.112;2022-10-31T08:15:00;102155.91;;;13.06;100.00
62031;BME280;62035;52.094;5.112;2022-10-31T08:17:29;102156.16;;;13.24;100.00
62031;BME280;62035;52.094;5.112;2022-10-31T08:19:56;102158.16;;;13.31;100.00
62031;BME280;62035;52.094;5.112;2022-10-31T08:22:24;102149.59;;;13.38;100.00
62031;BME280;62035;52.094;5.112;2022-10-31T08:24:52;102147.09;;;13.46;100.00
62031;BME280;62035;52.094;5.112;2022-10-31T08:27:19;102142.91;;;13.53;100.00
62031;BME280;62035;52.094;5.112;2022-10-31T08:29:47;102143.88;;;13.61;100.00
62031;BME280;62035;52.094;5.112;2022-10-31T08:32:14;102153.31;;;13.65;100.00
62031;BME280;62035;52.094;5.112;2022-10-31T08:34:43;102150.72;;;13.85;100.00
62031;BME280;62035;52.094;5.112;2022-10-31T08:37:11;102145.66;;;13.91;100.00
62031;BME280;62035;52.094;5.112;2022-10-31T08:39:38;102146.34;;;13.84;100.00
62031;BME280;62035;52.094;5.112;2022-10-31T08:42:06;102151.38;;;13.67;100.00
62031;BME280;62035;52.094;5.112;2022-10-31T08:44:33;102133.75;;;13.65;100.00
62031;BME280;62035;52.094;5.112;2022-10-31T08:47:01;102149.09;;;13.63;100.00
62031;BME280;62035;52.094;5.112;2022-10-31T08:49:28;102136.38;;;13.36;100.00
62031;BME280;62035;52.094;5.112;2022-10-31T08:51:57;102130.81;;;13.68;100.00
62031;BME280;62035;52.094;5.112;2022-10-31T08:54:25;102122.38;;;13.73;100.00
62031;BME280;62035;52.094;5.112;2022-10-31T08:56:54;102114.66;;;13.89;100.00
62031;BME280;62035;52.094;5.112;2022-10-31T08:59:22;102116.19;;;14.01;100.00
62031;BME280;62035;52.094;5.112;2022-10-31T09:01:49;102118.88;;;13.91;100.00
62031;BME280;62035;52.094;5.112;2022-10-31T09:04:17;102130.28;;;13.84;100.00
62031;BME280;62035;52.094;5.112;2022-10-31T09:06:44;102126.75;;;14.02;100.00
62031;BME280;62035;52.094;5.112;2022-10-31T09:09:13;102119.56;;;14.13;100.00
62031;BME280;62035;52.094;5.112;2022-10-31T09:11:41;102115.06;;;14.23;100.00
62031;BME280;62035;52.094;5.112;2022-10-31T09:14:08;102103.50;;;14.32;100.00
62031;BME280;62035;52.094;5.112;2022-10-31T09:16:36;102097.75;;;14.27;100.00
62031;BME280;62035;52.094;5.112;2022-10-31T09:19:04;102087.84;;;14.47;100.00
62031;BME280;62035;52.094;5.112;2022-10-31T09:21:31;102082.31;;;14.67;100.00
62031;BME280;62035;52.094;5.112;2022-10-31T09:23:59;102083.72;;;14.72;100.00
62031;BME280;62035;52.094;5.112;2022-10-31T09:26:27;102084.00;;;15.06;100.00
62031;BME280;62035;52.094;5.112;2022-10-31T09:28:56;102072.84;;;15.10;100.00
62031;BME280;62035;52.094;5.112;2022-10-31T09:31:24;102077.94;;;15.04;100.00
62031;BME280;62035;52.094;5.112;2022-10-31T09:33:52;102077.97;;;15.21;100.00
62031;BME280;62035;52.094;5.112;2022-10-31T09:36:20;102076.13;;;15.22;100.00
62031;BME280;62035;52.094;5.112;2022-10-31T09:38:48;102081.25;;;15.43;100.00
62031;BME280;62035;52.094;5.112;2022-10-31T09:41:19;102074.94;;;15.34;100.00
62031;BME280;62035;52.094;5.112;2022-10-31T09:43:59;102081.69;;;15.38;100.00
62031;BME280;62035;52.094;5.112;2022-10-31T09:46:43;102071.94;;;15.64;100.00
62031;BME280;62035;52.094;5.112;2022-10-31T09:49:33;102060.84;;;15.77;100.00
62031;BME280;62035;52.094;5.112;2022-10-31T09:52:16;102065.91;;;15.80;100.00
62031;BME280;62035;52.094;5.112;2022-10-31T09:54:52;102059.84;;;15.96;100.00
62031;BME280;62035;52.094;5.112;2022-10-31T09:57:27;102048.03;;;15.89;100.00
62031;BME280;62035;52.094;5.112;2022-10-31T10:00:00;102043.31;;;16.09;100.00
62031;BME280;62035;52.094;5.112;2022-10-31T10:02:30;102043.31;;;16.09;100.00
62031;BME280;62035;52.094;5.112;2022-10-31T10:05:05;102038.06;;;16.25;100.00
62031;BME280;62035;52.094;5.112;2022-10-31T10:07:44;102040.97;;;16.31;100.00
62031;BME280;62035;52.094;5.112;2022-10-31T10:10:48;102043.13;;;16.54;100.00
62031;BME280;62035;52.094;5.112;2022-10-31T10:13:30;102027.50;;;16.75;100.00
62031;BME280;62035;52.094;5.112;2022-10-31T10:16:15;102033.09;;;16.90;100.00
62031;BME280;62035;52.094;5.112;2022-10-31T10:19:11;102027.47;;;17.09;100.00
62031;BME280;62035;52.094;5.112;2022-10-31T10:21:54;102013.44;;;16.89;100.00
62031;BME280;62035;52.094;5.112;2022-10-31T10:24:39;102018.72;;;17.07;100.00
62031;BME280;62035;52.094;5.112;2022-10-31T10:27:25;102006.97;;;17.16;100.00
62031;BME280;62035;52.094;5.112;2022-10-31T10:30:02;102009.63;;;17.08;100.00
62031;BME280;62035;52.094;5.112;2022-10-31T10:32:42;102008.84;;;16.82;100.00
62031;BME280;62035;52.094;5.112;2022-10-31T10:35:20;102018.34;;;17.02;100.00
62031;BME280;62035;52.094;5.112;2022-10-31T10:37:53;102015.66;;;17.02;100.00
62031;BME280;62035;52.094;5.112;2022-10-31T10:40:27;102004.63;;;17.13;100.00
62031;BME280;62035;52.094;5.112;2022-10-31T10:43:01;101997.53;;;17.20;100.00
62031;BME280;62035;52.094;5.112;2022-10-31T10:45:49;101977.94;;;17.44;100.00
62031;BME280;62035;52.094;5.112;2022-10-31T10:48:58;101977.97;;;17.69;100.00
62031;BME280;62035;52.094;5.112;2022-10-31T10:51:37;101967.53;;;17.57;100.00
62031;BME280;62035;52.094;5.112;2022-10-31T10:54:20;101958.13;;;17.78;100.00
62031;BME280;62035;52.094;5.112;2022-10-31T10:57:14;101932.66;;;17.64;100.00
62031;BME280;62035;52.094;5.112;2022-10-31T10:59:50;101948.31;;;17.60;100.00
62031;BME280;62035;52.094;5.112;2022-10-31T11:02:22;101935.72;;;17.69;100.00
62031;BME280;62035;52.094;5.112;2022-10-31T11:04:54;101926.13;;;17.58;100.00
62031;BME280;62035;52.094;5.112;2022-10-31T11:07:24;101921.75;;;17.74;100.00
62031;BME280;62035;52.094;5.112;2022-10-31T11:10:02;101921.91;;;17.64;100.00
62031;BME280;62035;52.094;5.112;2022-10-31T11:12:39;101916.88;;;17.53;100.00
62031;BME280;62035;52.094;5.112;2022-10-31T11:15:17;101924.78;;;17.79;100.00
62031;BME280;62035;52.094;5.112;2022-10-31T11:17:49;101918.56;;;17.78;100.00
62031;BME280;62035;52.094;5.112;2022-10-31T11:20:29;101926.13;;;17.75;100.00
62031;BME280;62035;52.094;5.112;2022-10-31T11:23:01;101924.63;;;17.80;100.00
62031;BME280;62035;52.094;5.112;2022-10-31T11:25:31;101921.88;;;18.05;100.00
62031;BME280;62035;52.094;5.112;2022-10-31T11:28:00;101926.25;;;18.14;100.00
62031;BME280;62035;52.094;5.112;2022-10-31T11:30:29;101915.13;;;18.17;100.00
62031;BME280;62035;52.094;5.112;2022-10-31T11:32:58;101911.56;;;18.24;100.00
62031;BME280;62035;52.094;5.112;2022-10-31T11:35:28;101905.63;;;18.37;100.00
62031;BME280;62035;52.094;5.112;2022-10-31T11:37:58;101895.28;;;18.49;100.00
62031;BME280;62035;52.094;5.112;2022-10-31T11:40:27;101887.91;;;18.43;100.00
62031;BME280;62035;52.094;5.112;2022-10-31T11:42:57;101881.50;;;18.44;100.00
62031;BME280;62035;52.094;5.112;2022-10-31T11:45:29;101874.41;;;18.43;100.00
62031;BME280;62035;52.094;5.112;2022-10-31T11:48:01;101870.97;;;18.26;100.00
62031;BME280;62035;52.094;5.112;2022-10-31T11:50:37;101866.09;;;18.21;100.00
62031;BME280;62035;52.094;5.112;2022-10-31T11:53:14;101841.78;;;18.38;100.00
62031;BME280;62035;52.094;5.112;2022-10-31T11:55:45;101833.22;;;18.34;100.00
62031;BME280;62035;52.094;5.112;2022-10-31T11:58:20;101838.53;;;18.42;100.00
62031;BME280;62035;52.094;5.112;2022-10-31T12:00:51;101839.03;;;18.46;100.00
62031;BME280;62035;52.094;5.112;2022-10-31T12:03:30;101824.63;;;18.70;100.00
62031;BME280;62035;52.094;5.112;2022-10-31T12:06:09;101830.19;;;18.68;100.00
62031;BME280;62035;52.094;5.112;2022-10-31T12:08:42;101843.38;;;18.55;100.00
62031;BME280;62035;52.094;5.112;2022-10-31T12:11:18;101830.59;;;18.49;100.00
62031;BME280;62035;52.094;5.112;2022-10-31T12:14:11;101829.50;;;18.35;100.00
62031;BME280;62035;52.094;5.112;2022-10-31T12:16:57;101814.00;;;18.68;100.00
62031;BME280;62035;52.094;5.112;2022-10-31T12:19:36;101814.88;;;18.60;100.00
62031;BME280;62035;52.094;5.112;2022-10-31T12:22:14;101803.41;;;18.58;100.00
62031;BME280;62035;52.094;5.112;2022-10-31T12:25:02;101795.84;;;18.54;100.00
62031;BME280;62035;52.094;5.112;2022-10-31T12:28:01;101780.81;;;18.59;100.00
62031;BME280;62035;52.094;5.112;2022-10-31T12:30:49;101784.91;;;18.55;100.00
62031;BME280;62035;52.094;5.112;2022-10-31T12:33:34;101786.91;;;18.61;100.00
62031;BME280;62035;52.094;5.112;2022-10-31T12:39:30;101753.09;;;18.96;100.00
62031;BME280;62035;52.094;5.112;2022-10-31T12:42:14;101764.19;;;19.02;100.00
62031;BME280;62035;52.094;5.112;2022-10-31T12:45:07;101753.69;;;19.07;100.00
62031;BME280;62035;52.094;5.112;2022-10-31T12:48:08;101745.69;;;19.13;100.00
62031;BME280;62035;52.094;5.112;2022-10-31T12:50:52;101739.53;;;19.19;100.00
62031;BME280;62035;52.094;5.112;2022-10-31T12:53:41;101724.28;;;19.12;100.00
62031;BME280;62035;52.094;5.112;2022-10-31T12:56:30;101715.94;;;19.36;100.00
62031;BME280;62035;52.094;5.112;2022-10-31T12:59:10;101722.63;;;19.25;100.00
62031;BME280;62035;52.094;5.112;2022-10-31T13:01:48;101715.09;;;19.50;100.00
62031;BME280;62035;52.094;5.112;2022-10-31T13:04:35;101690.25;;;19.40;100.00
62031;BME280;62035;52.094;5.112;2022-10-31T13:07:11;101686.44;;;19.64;100.00
62031;BME280;62035;52.094;5.112;2022-10-31T13:09:49;101691.09;;;19.70;100.00
62031;BME280;62035;52.094;5.112;2022-10-31T13:12:24;101685.41;;;19.36;100.00